createdAt,value
2019-03-01T00:02:02.478Z,84.86
2019-03-01T00:04:36.980Z,84.78
2019-03-01T00:07:11.442Z,84.86
2019-03-01T00:09:45.795Z,84.82
2019-03-01T00:12:20.438Z,84.86
2019-03-01T00:14:55.037Z,84.73
2019-03-01T00:17:30.006Z,84.40
2019-03-01T00:20:04.538Z,84.43
2019-03-01T00:22:38.704Z,84.16
2019-03-01T00:25:12.783Z,84.25
2019-03-01T00:27:46.942Z,84.37
2019-03-01T00:30:20.827Z,84.42
2019-03-01T00:32:55.451Z,84.41
2019-03-01T00:35:27.570Z,84.22
2019-03-01T00:38:01.980Z,84.19
2019-03-01T00:40:34.616Z,84.22
2019-03-01T00:43:08.954Z,84.21
2019-03-01T00:45:40.741Z,83.68
2019-03-01T00:48:12.002Z,83.70
2019-03-01T00:50:43.258Z,83.58
2019-03-01T00:53:14.583Z,83.73
2019-03-01T00:55:45.351Z,83.84
2019-03-01T00:58:17.975Z,83.84
2019-03-01T01:00:49.840Z,84.09
2019-03-01T01:03:20.604Z,84.07
2019-03-01T01:05:51.465Z,84.43
2019-03-01T01:08:22.351Z,84.33
2019-03-01T01:10:53.563Z,84.06
2019-03-01T01:13:24.506Z,84.44
2019-03-01T01:15:55.656Z,84.44
2019-03-01T01:18:26.304Z,84.63
2019-03-01T01:20:57.034Z,84.49
2019-03-01T01:23:27.923Z,84.46
2019-03-01T01:25:58.536Z,84.34
2019-03-01T01:28:29.615Z,84.07
2019-03-01T01:31:00.573Z,84.54
2019-03-01T01:33:31.722Z,84.42
2019-03-01T01:36:02.553Z,84.55
2019-03-01T01:38:33.746Z,84.55
2019-03-01T01:41:05.006Z,84.70
2019-03-01T01:43:36.460Z,84.69
2019-03-01T01:46:11.229Z,84.70
2019-03-01T01:48:42.735Z,84.69
2019-03-01T01:51:13.690Z,84.55
2019-03-01T01:53:45.056Z,84.44
2019-03-01T01:56:15.847Z,84.47
2019-03-01T01:58:47.250Z,84.38
2019-03-01T02:01:18.128Z,84.03
2019-03-01T02:03:49.162Z,84.07
2019-03-01T02:06:20.010Z,83.91
2019-03-01T02:08:50.924Z,83.59
2019-03-01T02:11:22.070Z,83.78
2019-03-01T02:13:53.499Z,83.56
2019-03-01T02:16:24.773Z,83.53
2019-03-01T02:18:57.953Z,83.88
2019-03-01T02:21:28.724Z,84.03
2019-03-01T02:23:59.771Z,84.06
2019-03-01T02:26:30.495Z,83.77
2019-03-01T02:29:01.431Z,83.35
2019-03-01T02:31:32.778Z,83.49
2019-03-01T02:34:04.151Z,83.31
2019-03-01T02:36:35.120Z,83.60
2019-03-01T02:39:06.230Z,83.56
2019-03-01T02:41:38.447Z,83.48
2019-03-01T02:44:09.648Z,83.79
2019-03-01T02:46:41.452Z,83.83
2019-03-01T02:49:12.353Z,83.43
2019-03-01T02:51:43.430Z,83.05
2019-03-01T02:54:14.647Z,82.73
2019-03-01T02:56:45.807Z,83.27
2019-03-01T02:59:16.865Z,83.37
2019-03-01T03:01:47.649Z,83.37
2019-03-01T03:04:18.426Z,82.86
2019-03-01T03:06:50.934Z,82.81
2019-03-01T03:09:22.330Z,82.89
2019-03-01T03:11:53.064Z,83.29
2019-03-01T03:14:23.978Z,83.22
2019-03-01T03:16:55.108Z,83.84
2019-03-01T03:19:26.337Z,83.80
2019-03-01T03:21:57.417Z,84.01
2019-03-01T03:24:28.586Z,83.76
2019-03-01T03:27:00.325Z,83.44
2019-03-01T03:29:31.761Z,83.04
2019-03-01T03:32:03.036Z,82.65
2019-03-01T03:34:34.018Z,82.95
2019-03-01T03:37:05.157Z,84.12
2019-03-01T03:39:36.297Z,84.41
2019-03-01T03:42:07.063Z,84.28
2019-03-01T03:44:37.629Z,83.88
2019-03-01T03:49:41.043Z,83.47
2019-03-01T03:52:11.756Z,83.22
2019-03-01T03:54:42.711Z,83.69
2019-03-01T03:57:13.969Z,84.44
2019-03-01T03:59:44.687Z,84.66
2019-03-01T04:02:15.671Z,84.93
2019-03-01T04:04:46.507Z,84.97
2019-03-01T04:07:17.875Z,84.80
2019-03-01T04:09:48.935Z,84.57
2019-03-01T04:12:19.570Z,84.31
2019-03-01T04:14:50.730Z,84.09
2019-03-01T04:17:21.803Z,83.93
2019-03-01T04:19:52.891Z,84.10
2019-03-01T04:22:24.196Z,84.38
2019-03-01T04:24:54.749Z,84.61
2019-03-01T04:27:25.354Z,84.70
2019-03-01T04:29:56.568Z,84.58
2019-03-01T04:32:27.442Z,84.81
2019-03-01T04:34:58.512Z,84.79
2019-03-01T04:37:29.578Z,84.72
2019-03-01T04:40:00.913Z,84.42
2019-03-01T04:42:32.162Z,84.41
2019-03-01T04:45:02.948Z,84.23
2019-03-01T04:47:34.391Z,83.98
2019-03-01T04:50:08.005Z,83.79
2019-03-01T04:52:38.628Z,83.58
2019-03-01T04:55:13.038Z,83.51
2019-03-01T04:57:44.708Z,83.68
2019-03-01T05:00:19.751Z,84.00
2019-03-01T05:02:50.636Z,84.00
2019-03-01T05:05:21.283Z,83.89
2019-03-01T05:07:52.310Z,84.02
2019-03-01T05:10:23.498Z,84.01
2019-03-01T05:12:54.901Z,83.65
2019-03-01T05:15:25.833Z,83.86
2019-03-01T05:17:56.601Z,83.73
2019-03-01T05:20:29.806Z,83.86
2019-03-01T05:23:00.661Z,83.91
2019-03-01T05:25:31.706Z,83.56
2019-03-01T05:28:02.581Z,83.47
2019-03-01T05:30:33.649Z,83.42
2019-03-01T05:33:04.699Z,83.50
2019-03-01T05:35:35.377Z,83.35
2019-03-01T05:38:07.053Z,83.31
2019-03-01T05:40:37.840Z,83.50
2019-03-01T05:43:08.527Z,83.29
2019-03-01T05:45:39.365Z,83.56
2019-03-01T05:48:10.586Z,83.73
2019-03-01T05:50:46.318Z,83.44
2019-03-01T05:53:17.315Z,83.42
2019-03-01T05:55:48.476Z,83.32
2019-03-01T05:58:19.569Z,83.00
2019-03-01T06:00:51.722Z,82.56
2019-03-01T06:03:23.965Z,82.37
2019-03-01T06:05:55.069Z,82.93
2019-03-01T06:08:29.097Z,82.98
2019-03-01T06:11:02.000Z,82.55
2019-03-01T06:13:36.226Z,82.92
2019-03-01T06:16:10.616Z,83.09
2019-03-01T06:18:43.522Z,82.96
2019-03-01T06:21:15.832Z,82.81
2019-03-01T06:23:50.064Z,82.74
2019-03-01T06:26:24.151Z,82.44
2019-03-01T06:28:58.399Z,82.78
2019-03-01T06:31:32.403Z,82.57
2019-03-01T06:34:06.808Z,82.61
2019-03-01T06:36:40.603Z,82.54
2019-03-01T06:39:14.776Z,82.55
2019-03-01T06:41:49.173Z,82.49
2019-03-01T06:44:22.191Z,82.80
2019-03-01T06:47:00.324Z,83.01
2019-03-01T06:49:37.920Z,82.87
2019-03-01T06:52:10.017Z,82.13
2019-03-01T06:54:41.598Z,82.07
2019-03-01T06:57:12.975Z,82.11
2019-03-01T06:59:45.614Z,82.40
2019-03-01T07:02:18.119Z,82.13
2019-03-01T07:04:49.250Z,82.00
2019-03-01T07:07:20.944Z,81.42
2019-03-01T07:09:51.999Z,81.43
2019-03-01T07:12:23.145Z,81.01
2019-03-01T07:14:54.152Z,81.26
2019-03-01T07:17:25.063Z,81.35
2019-03-01T07:19:56.149Z,81.51
2019-03-01T07:22:27.209Z,81.25
2019-03-01T07:24:58.603Z,81.70
2019-03-01T07:27:29.661Z,81.88
2019-03-01T07:30:00.637Z,81.63
2019-03-01T07:32:32.638Z,81.76
2019-03-01T07:35:03.907Z,81.24
2019-03-01T07:37:34.955Z,81.53
2019-03-01T07:40:08.721Z,80.91
2019-03-01T07:42:39.512Z,80.52
2019-03-01T07:45:12.473Z,80.50
2019-03-01T07:47:45.151Z,80.73
2019-03-01T07:50:16.348Z,80.45
2019-03-01T07:52:47.730Z,79.91
2019-03-01T07:55:18.802Z,80.04
2019-03-01T07:57:50.664Z,79.76
2019-03-01T08:00:21.991Z,80.22
2019-03-01T08:02:53.479Z,80.64
2019-03-01T08:05:24.723Z,80.94
2019-03-01T08:07:56.605Z,81.72
2019-03-01T08:10:29.229Z,81.88
2019-03-01T08:13:01.482Z,81.63
2019-03-01T08:15:32.618Z,81.72
2019-03-01T08:18:04.741Z,81.30
2019-03-01T08:20:36.889Z,80.81
2019-03-01T08:23:08.176Z,80.71
2019-03-01T08:25:39.159Z,81.13
2019-03-01T08:28:10.202Z,81.71
2019-03-01T08:30:42.502Z,81.65
2019-03-01T08:33:15.202Z,81.73
2019-03-01T08:35:46.621Z,80.63
2019-03-01T08:38:18.148Z,80.32
2019-03-01T08:40:49.893Z,80.21
2019-03-01T08:43:22.040Z,79.72
2019-03-01T08:45:53.767Z,79.21
2019-03-01T08:48:24.838Z,79.45
2019-03-01T08:50:57.215Z,79.35
2019-03-01T08:53:28.413Z,79.09
2019-03-01T08:56:00.669Z,78.85
2019-03-01T08:58:32.144Z,79.02
2019-03-01T09:01:08.373Z,79.41
2019-03-01T09:03:43.301Z,78.88
2019-03-01T09:06:15.108Z,78.65
2019-03-01T09:08:46.906Z,78.68
2019-03-01T09:11:18.937Z,78.41
2019-03-01T09:13:51.568Z,77.92
2019-03-01T09:16:23.051Z,78.14
2019-03-01T09:18:54.767Z,78.04
2019-03-01T09:21:25.967Z,77.79
2019-03-01T09:23:57.637Z,78.08
2019-03-01T09:26:29.034Z,78.01
2019-03-01T09:29:00.504Z,77.95
2019-03-01T09:31:31.955Z,77.91
2019-03-01T09:34:03.134Z,77.85
2019-03-01T09:36:35.433Z,78.01
2019-03-01T09:39:08.928Z,78.22
2019-03-01T09:41:41.645Z,78.68
2019-03-01T09:44:14.186Z,78.41
2019-03-01T09:46:46.105Z,78.10
2019-03-01T09:49:18.084Z,77.67
2019-03-01T09:51:50.136Z,77.09
2019-03-01T09:54:21.652Z,76.94
2019-03-01T09:56:53.100Z,76.38
2019-03-01T09:59:24.446Z,76.80
2019-03-01T10:01:56.198Z,76.80
2019-03-01T10:04:27.711Z,77.24
2019-03-01T10:06:59.853Z,76.61
2019-03-01T10:09:32.430Z,74.80
2019-03-01T10:12:03.969Z,74.87
2019-03-01T10:14:35.049Z,75.15
2019-03-01T10:17:05.995Z,74.94
2019-03-01T10:19:37.116Z,74.67
2019-03-01T10:22:08.385Z,73.06
2019-03-01T10:24:39.875Z,73.36
2019-03-01T10:27:11.119Z,73.35
2019-03-01T10:29:42.375Z,73.59
2019-03-01T10:32:13.761Z,73.47
2019-03-01T10:34:44.989Z,72.84
2019-03-01T10:37:16.291Z,70.63
2019-03-01T10:39:55.226Z,70.52
2019-03-01T10:42:20.723Z,70.51
2019-03-01T10:44:52.023Z,70.43
2019-03-01T10:47:23.317Z,70.30
2019-03-01T10:49:54.591Z,70.25
2019-03-01T10:52:26.173Z,69.64
2019-03-01T10:54:58.462Z,69.34
2019-03-01T10:57:30.519Z,69.67
2019-03-01T11:00:01.570Z,69.32
2019-03-01T11:02:34.509Z,69.45
2019-03-01T11:05:07.031Z,68.36
2019-03-01T11:07:39.129Z,67.84
2019-03-01T11:10:15.349Z,67.64
2019-03-01T11:12:46.614Z,67.74
2019-03-01T11:15:18.249Z,67.76
2019-03-01T11:17:49.443Z,66.62
2019-03-01T11:20:21.579Z,66.50
2019-03-01T11:22:52.811Z,66.57
2019-03-01T11:25:26.229Z,65.97
2019-03-01T11:27:58.236Z,66.39
2019-03-01T11:30:32.487Z,67.04
2019-03-01T11:33:03.951Z,66.54
2019-03-01T11:35:35.246Z,65.82
2019-03-01T11:38:07.030Z,65.90
2019-03-01T11:40:40.028Z,65.86
2019-03-01T11:43:10.887Z,65.33
2019-03-01T11:45:41.800Z,65.29
2019-03-01T11:48:14.183Z,65.29
2019-03-01T11:50:45.108Z,64.69
2019-03-01T11:53:18.389Z,65.44
2019-03-01T11:55:49.473Z,64.71
2019-03-01T11:58:20.272Z,64.81
2019-03-01T12:00:52.412Z,64.81
2019-03-01T12:03:23.878Z,64.61
2019-03-01T12:05:54.769Z,64.23
2019-03-01T12:08:26.027Z,64.04
2019-03-01T12:10:57.632Z,64.27
2019-03-01T12:13:28.664Z,64.50
2019-03-01T12:16:01.241Z,64.32
2019-03-01T12:18:32.671Z,64.58
2019-03-01T12:21:04.005Z,64.87
2019-03-01T12:23:35.961Z,65.56
2019-03-01T12:26:07.246Z,65.04
2019-03-01T12:28:38.254Z,64.97
2019-03-01T12:31:09.822Z,65.99
2019-03-01T12:33:40.976Z,65.52
2019-03-01T12:36:12.117Z,65.60
2019-03-01T12:38:43.136Z,65.36
2019-03-01T12:41:13.968Z,64.29
2019-03-01T12:43:45.430Z,64.42
2019-03-01T12:46:16.439Z,64.63
2019-03-01T12:48:47.972Z,64.48
2019-03-01T12:51:19.218Z,63.92
2019-03-01T12:53:52.987Z,64.67
2019-03-01T12:56:24.890Z,65.21
2019-03-01T12:58:56.637Z,64.58
2019-03-01T13:01:27.723Z,64.73
2019-03-01T13:03:58.816Z,65.09
2019-03-01T13:06:30.175Z,65.27
2019-03-01T13:09:01.585Z,65.46
2019-03-01T13:11:34.208Z,65.94
2019-03-01T13:14:05.315Z,65.31
2019-03-01T13:16:36.432Z,65.14
2019-03-01T13:19:07.399Z,64.83
2019-03-01T13:21:39.638Z,65.15
2019-03-01T13:24:12.584Z,64.96
2019-03-01T13:26:43.570Z,64.58
2019-03-01T13:29:14.608Z,64.50
2019-03-01T13:31:47.114Z,64.49
2019-03-01T13:34:18.768Z,64.86
2019-03-01T13:36:50.554Z,65.23
2019-03-01T13:39:21.668Z,63.82
2019-03-01T13:41:52.677Z,64.07
2019-03-01T13:44:23.946Z,63.39
2019-03-01T13:46:55.209Z,63.00
2019-03-01T13:49:30.359Z,62.04
2019-03-01T13:52:00.042Z,62.70
2019-03-01T13:54:31.638Z,63.42
2019-03-01T13:57:02.559Z,63.81
2019-03-01T13:59:33.572Z,63.09
2019-03-01T14:02:07.568Z,63.21
2019-03-01T14:04:40.272Z,62.60
2019-03-01T14:07:11.111Z,62.69
2019-03-01T14:09:41.821Z,62.71
2019-03-01T14:12:13.103Z,62.70
2019-03-01T14:14:44.602Z,62.58
2019-03-01T14:17:16.176Z,61.74
2019-03-01T14:19:47.168Z,61.06
2019-03-01T14:22:18.255Z,61.68
2019-03-01T14:24:49.245Z,61.92
2019-03-01T14:27:20.555Z,62.41
2019-03-01T14:29:53.679Z,62.43
2019-03-01T14:32:23.832Z,62.60
2019-03-01T14:34:55.304Z,62.26
2019-03-01T14:37:26.200Z,62.61
2019-03-01T14:39:59.048Z,62.84
2019-03-01T14:42:30.911Z,61.99
2019-03-01T14:45:02.133Z,62.07
2019-03-01T14:47:34.250Z,61.66
2019-03-01T14:50:08.709Z,62.14
2019-03-01T14:52:39.601Z,62.40
2019-03-01T14:55:14.512Z,62.32
2019-03-01T14:57:48.812Z,62.36
2019-03-01T15:00:23.357Z,63.02
2019-03-01T15:02:57.867Z,63.15
2019-03-01T15:05:29.151Z,62.57
2019-03-01T15:08:03.153Z,62.71
2019-03-01T15:10:35.454Z,62.93
2019-03-01T15:13:06.558Z,63.17
2019-03-01T15:15:37.445Z,63.37
2019-03-01T15:18:08.838Z,63.53
2019-03-01T15:20:40.571Z,63.44
2019-03-01T15:23:11.739Z,63.60
2019-03-01T15:25:47.462Z,63.87
2019-03-01T15:28:16.583Z,63.88
2019-03-01T15:30:47.994Z,64.15
2019-03-01T15:33:20.527Z,63.86
2019-03-01T15:35:53.021Z,64.61
2019-03-01T15:38:27.606Z,64.26
2019-03-01T15:40:57.535Z,66.85
2019-03-01T15:43:31.358Z,68.17
2019-03-01T15:46:14.427Z,69.01
2019-03-01T15:48:51.584Z,69.52
2019-03-01T15:51:23.775Z,69.98
2019-03-01T15:53:57.688Z,70.32
2019-03-01T15:56:28.202Z,70.50
2019-03-01T15:59:00.223Z,70.55
2019-03-01T16:01:30.808Z,70.79
2019-03-01T16:04:01.834Z,71.09
2019-03-01T16:06:33.107Z,71.21
2019-03-01T16:09:05.938Z,71.72
2019-03-01T16:11:37.807Z,71.94
2019-03-01T16:14:09.227Z,72.12
2019-03-01T16:16:41.361Z,72.14
2019-03-01T16:19:13.869Z,72.65
2019-03-01T16:21:44.681Z,72.62
2019-03-01T16:24:15.831Z,72.67
2019-03-01T16:26:46.829Z,72.01
2019-03-01T16:29:17.773Z,72.07
2019-03-01T16:31:48.992Z,72.02
2019-03-01T16:34:22.208Z,72.76
2019-03-01T16:36:53.470Z,73.04
2019-03-01T16:39:24.832Z,72.58
2019-03-01T16:41:55.704Z,72.69
2019-03-01T16:44:27.089Z,72.56
2019-03-01T16:46:58.040Z,72.56
2019-03-01T16:49:28.812Z,71.91
2019-03-01T16:52:00.064Z,72.21
2019-03-01T16:54:32.051Z,72.34
2019-03-01T16:57:03.390Z,72.76
2019-03-01T16:59:34.536Z,72.25
2019-03-01T17:02:06.650Z,72.41
2019-03-01T17:04:38.830Z,72.96
2019-03-01T17:07:10.341Z,73.83
2019-03-01T17:09:41.202Z,73.64
2019-03-01T17:12:16.662Z,73.93
2019-03-01T17:14:46.653Z,73.88
2019-03-01T17:17:20.585Z,73.89
2019-03-01T17:19:51.522Z,73.95
2019-03-01T17:22:23.204Z,73.92
2019-03-01T17:24:55.130Z,74.42
2019-03-01T17:27:29.135Z,74.83
2019-03-01T17:29:59.811Z,75.06
2019-03-01T17:32:30.773Z,75.50
2019-03-01T17:35:18.286Z,76.03
2019-03-01T17:38:11.589Z,76.31
2019-03-01T17:41:06.331Z,75.63
2019-03-01T17:43:40.962Z,75.53
2019-03-01T17:46:11.885Z,75.30
2019-03-01T17:48:42.611Z,76.08
2019-03-01T17:51:13.212Z,76.17
2019-03-01T17:53:46.408Z,75.78
2019-03-01T17:56:18.619Z,76.24
2019-03-01T17:58:49.724Z,76.52
2019-03-01T18:01:20.964Z,76.14
2019-03-01T18:03:51.843Z,75.63
2019-03-01T18:06:22.644Z,76.77
2019-03-01T18:09:04.242Z,76.93
2019-03-01T18:12:06.404Z,77.10
2019-03-01T18:14:49.764Z,76.58
2019-03-01T18:17:21.124Z,76.91
2019-03-01T18:19:52.232Z,76.82
2019-03-01T18:22:26.422Z,76.60
2019-03-01T18:24:58.681Z,76.75
2019-03-01T18:27:30.091Z,77.02
2019-03-01T18:30:05.494Z,76.55
2019-03-01T18:32:37.782Z,76.67
2019-03-01T18:35:11.400Z,77.34
2019-03-01T18:37:44.363Z,78.41
2019-03-01T18:40:16.872Z,78.36
2019-03-01T18:42:49.335Z,77.77
2019-03-01T18:45:22.660Z,77.55
2019-03-01T18:47:55.383Z,77.84
2019-03-01T18:50:31.183Z,78.10
2019-03-01T18:53:04.596Z,77.79
2019-03-01T18:55:35.463Z,77.43
2019-03-01T18:58:10.442Z,77.43
2019-03-01T19:00:41.941Z,77.58
2019-03-01T19:03:13.935Z,77.69
2019-03-01T19:05:44.444Z,77.96
2019-03-01T19:08:16.246Z,78.04
2019-03-01T19:10:53.939Z,77.86
2019-03-01T19:13:24.307Z,78.01
2019-03-01T19:16:00.732Z,77.86
2019-03-01T19:18:31.828Z,78.44
2019-03-01T19:21:03.768Z,79.06
2019-03-01T19:23:35.137Z,78.92
2019-03-01T19:26:05.712Z,78.86
2019-03-01T19:28:36.175Z,78.15
2019-03-01T19:31:06.664Z,78.74
2019-03-01T19:33:37.864Z,79.00
2019-03-01T19:36:09.424Z,79.53
2019-03-01T19:38:40.793Z,79.35
2019-03-01T19:41:12.188Z,79.31
2019-03-01T19:43:45.365Z,79.49
2019-03-01T19:46:15.651Z,79.55
2019-03-01T19:48:47.118Z,79.13
2019-03-01T19:51:17.732Z,78.61
2019-03-01T19:53:49.913Z,78.83
2019-03-01T19:56:25.069Z,78.64
2019-03-01T19:58:52.989Z,78.76
2019-03-01T20:01:23.439Z,78.64
2019-03-01T20:03:54.070Z,78.80
2019-03-01T20:06:24.667Z,79.98
2019-03-01T20:08:55.159Z,80.64
2019-03-01T20:11:26.660Z,80.55
2019-03-01T20:14:01.663Z,80.30
2019-03-01T20:16:34.132Z,79.84
2019-03-01T20:19:07.530Z,79.56
2019-03-01T20:21:41.389Z,79.78
2019-03-01T20:24:14.820Z,79.85
2019-03-01T20:26:46.845Z,79.64
2019-03-01T20:29:17.493Z,80.02
2019-03-01T20:31:47.890Z,79.96
2019-03-01T20:34:18.263Z,79.80
2019-03-01T20:36:49.579Z,79.80
2019-03-01T20:39:20.870Z,79.82
2019-03-01T20:41:51.427Z,79.82
2019-03-01T20:44:22.855Z,80.06
2019-03-01T20:46:54.004Z,80.01
2019-03-01T20:49:24.661Z,79.90
2019-03-01T20:51:55.114Z,80.22
2019-03-01T20:54:26.998Z,80.38
2019-03-01T20:56:57.735Z,80.38
2019-03-01T20:59:28.104Z,80.31
2019-03-01T21:01:58.560Z,80.23
2019-03-01T21:04:29.209Z,80.93
2019-03-01T21:06:59.755Z,81.01
2019-03-01T21:09:31.207Z,80.55
2019-03-01T21:12:01.927Z,80.60
2019-03-01T21:14:32.422Z,80.48
2019-03-01T21:17:03.877Z,80.58
2019-03-01T21:19:34.513Z,80.94
2019-03-01T21:22:05.566Z,80.79
2019-03-01T21:24:36.116Z,81.03
2019-03-01T21:27:06.631Z,81.03
2019-03-01T21:29:38.008Z,81.20
2019-03-01T21:32:11.773Z,81.16
2019-03-01T21:34:42.077Z,81.64
2019-03-01T21:37:12.969Z,83.42
2019-03-01T21:39:43.992Z,83.15
2019-03-01T21:42:16.962Z,84.15
2019-03-01T21:44:47.563Z,84.41
2019-03-01T21:47:18.973Z,84.85
2019-03-01T21:49:50.918Z,84.74
2019-03-01T21:52:21.686Z,84.75
2019-03-01T21:54:53.334Z,84.73
2019-03-01T21:57:27.632Z,84.37
2019-03-01T21:59:57.631Z,84.37
2019-03-01T22:02:28.841Z,84.09
2019-03-01T22:05:00.568Z,84.52
2019-03-01T22:07:33.691Z,84.57
2019-03-01T22:10:07.853Z,84.49
2019-03-01T22:12:39.047Z,84.49
2019-03-01T22:15:13.724Z,83.91
2019-03-01T22:17:45.383Z,83.51
2019-03-01T22:20:17.180Z,83.51
2019-03-01T22:22:48.316Z,84.15
2019-03-01T22:25:19.376Z,84.15
2019-03-01T22:27:51.653Z,84.54
2019-03-01T22:30:27.285Z,84.81
2019-03-01T22:32:58.091Z,84.94
2019-03-01T22:35:28.912Z,84.52
2019-03-01T22:38:03.030Z,84.33
2019-03-01T22:40:32.941Z,84.33
2019-03-01T22:43:03.824Z,84.54
2019-03-01T22:45:36.089Z,84.57
2019-03-01T22:48:08.433Z,84.50
2019-03-01T22:50:42.582Z,84.63
2019-03-01T22:53:13.557Z,84.32
2019-03-01T22:55:44.572Z,83.60
2019-03-01T22:58:16.173Z,83.60
2019-03-01T23:00:54.463Z,83.04
2019-03-01T23:03:25.204Z,83.19
2019-03-01T23:05:55.900Z,83.19
2019-03-01T23:08:26.902Z,83.45
2019-03-01T23:10:57.918Z,83.36
2019-03-01T23:13:29.192Z,83.42
2019-03-01T23:16:00.621Z,83.48
2019-03-01T23:18:31.900Z,82.42
2019-03-01T23:21:02.635Z,82.42
2019-03-01T23:23:33.863Z,82.48
2019-03-01T23:26:04.772Z,82.48
2019-03-01T23:28:36.043Z,82.45
2019-03-01T23:31:07.161Z,82.49
2019-03-01T23:33:38.371Z,82.24
2019-03-01T23:36:11.536Z,81.96
2019-03-01T23:38:42.480Z,81.37
2019-03-01T23:41:13.873Z,81.65
2019-03-01T23:43:45.469Z,81.56
2019-03-01T23:46:16.642Z,81.37
2019-03-01T23:48:48.910Z,81.60
2019-03-01T23:51:19.979Z,80.04
2019-03-01T23:53:51.362Z,79.49
2019-03-01T23:56:22.109Z,78.97
2019-03-01T23:58:53.960Z,79.88
